createdAt,value
2022-09-15T00:01:02.847Z,31.01
2022-09-15T00:02:18.581Z,31.29
2022-09-15T00:03:25.757Z,31.25
2022-09-15T00:04:32.325Z,31.27
2022-09-15T00:05:38.149Z,31.26
2022-09-15T00:06:45.647Z,31.29
2022-09-15T00:07:54.165Z,31.20
2022-09-15T00:09:00.346Z,31.05
2022-09-15T00:10:07.902Z,31.23
2022-09-15T00:11:24.967Z,31.27
2022-09-15T00:12:32.024Z,31.74
2022-09-15T00:13:38.654Z,32.10
2022-09-15T00:14:45.484Z,32.45
2022-09-15T00:15:53.623Z,32.29
2022-09-15T00:16:59.925Z,32.31
2022-09-15T00:18:09.253Z,32.51
2022-09-15T00:19:15.675Z,32.31
2022-09-15T00:20:23.200Z,32.36
2022-09-15T00:21:31.840Z,32.62
2022-09-15T00:22:40.947Z,32.74
2022-09-15T00:23:48.546Z,32.53
2022-09-15T00:24:55.648Z,32.40
2022-09-15T00:26:02.252Z,32.45
2022-09-15T00:27:07.930Z,32.94
2022-09-15T00:28:14.953Z,32.97
2022-09-15T00:29:50.440Z,33.10
2022-09-15T00:31:15.211Z,33.70
2022-09-15T00:34:16.303Z,34.16
2022-09-15T00:35:32.305Z,34.41
2022-09-15T00:36:50.274Z,34.08
2022-09-15T00:38:13.606Z,34.08
2022-09-15T00:43:47.285Z,35.03
2022-09-15T00:45:01.703Z,35.25
2022-09-15T00:46:07.547Z,35.68
2022-09-15T00:47:19.777Z,36.20
2022-09-15T00:48:29.774Z,36.69
2022-09-15T00:49:36.661Z,36.94
2022-09-15T00:50:46.468Z,37.21
2022-09-15T00:51:55.366Z,37.35
2022-09-15T00:53:03.006Z,37.60
2022-09-15T00:54:12.420Z,37.90
2022-09-15T00:55:30.980Z,38.15
2022-09-15T00:56:39.957Z,38.25
2022-09-15T00:58:11.245Z,38.29
2022-09-15T00:59:23.462Z,38.55
2022-09-15T01:00:30.300Z,38.88
2022-09-15T01:01:38.126Z,39.05
2022-09-15T01:02:46.227Z,39.10
2022-09-15T01:03:53.554Z,39.32
2022-09-15T01:05:02.822Z,39.40
2022-09-15T01:06:17.554Z,39.42
2022-09-15T01:07:31.543Z,39.57
2022-09-15T01:09:00.264Z,39.58
2022-09-15T01:10:44.771Z,39.92
2022-09-15T01:12:03.998Z,40.41
2022-09-15T01:13:19.038Z,40.46
2022-09-15T01:14:27.025Z,40.73
2022-09-15T01:16:02.397Z,41.00
2022-09-15T01:17:27.518Z,41.80
2022-09-15T01:19:14.598Z,42.49
2022-09-15T01:20:57.805Z,43.02
2022-09-15T01:22:31.532Z,43.28
2022-09-15T01:24:41.321Z,43.73
2022-09-15T01:25:59.256Z,44.98
2022-09-15T01:27:42.213Z,45.12
2022-09-15T01:29:26.429Z,45.44
2022-09-15T01:31:02.751Z,45.83
2022-09-15T01:32:38.212Z,46.49
2022-09-15T01:34:04.887Z,46.41
2022-09-15T01:35:54.524Z,46.63
2022-09-15T01:37:15.871Z,46.87
2022-09-15T01:38:33.416Z,47.26
2022-09-15T01:39:43.198Z,47.72
2022-09-15T01:41:20.616Z,47.78
2022-09-15T01:42:27.206Z,47.96
2022-09-15T01:43:35.950Z,47.96
2022-09-15T01:45:02.928Z,48.26
2022-09-15T01:46:08.769Z,48.44
2022-09-15T01:47:18.065Z,48.67
2022-09-15T01:48:25.930Z,49.08
2022-09-15T01:50:13.154Z,48.98
2022-09-15T01:51:20.485Z,49.27
2022-09-15T01:52:26.480Z,49.16
2022-09-15T01:53:32.745Z,49.68
2022-09-15T01:54:41.302Z,49.83
2022-09-15T01:56:12.722Z,50.15
2022-09-15T01:57:24.713Z,50.54
2022-09-15T01:58:34.038Z,50.37
2022-09-15T01:59:44.165Z,50.47
2022-09-15T02:01:29.518Z,50.60
2022-09-15T02:02:45.885Z,51.03
2022-09-15T02:04:25.942Z,51.04
2022-09-15T02:06:02.447Z,51.64
2022-09-15T02:07:13.271Z,52.02
2022-09-15T02:08:29.871Z,52.11
2022-09-15T02:09:39.812Z,52.03
2022-09-15T02:10:53.132Z,52.26
2022-09-15T02:12:34.211Z,52.36
2022-09-15T02:19:19.133Z,53.54
2022-09-15T02:22:39.169Z,53.81
2022-09-15T02:23:53.696Z,54.03
2022-09-15T02:25:19.195Z,54.22
2022-09-15T02:26:27.317Z,55.13
2022-09-15T02:27:38.449Z,55.55
2022-09-15T02:28:44.779Z,55.80
2022-09-15T02:29:55.129Z,56.09
2022-09-15T02:31:02.292Z,56.45
2022-09-15T02:32:08.590Z,56.46
2022-09-15T02:33:16.068Z,56.46
2022-09-15T02:34:26.646Z,56.71
2022-09-15T02:35:35.454Z,57.02
2022-09-15T02:36:42.079Z,57.30
2022-09-15T02:37:48.180Z,57.40
2022-09-15T02:38:56.945Z,57.23
2022-09-15T02:40:03.646Z,57.30
2022-09-15T02:41:09.413Z,57.50
2022-09-15T02:42:33.753Z,57.54
2022-09-15T02:43:47.107Z,57.81
2022-09-15T02:44:58.563Z,58.42
2022-09-15T02:46:06.667Z,58.75
2022-09-15T02:47:14.114Z,59.00
2022-09-15T02:48:25.791Z,58.99
2022-09-15T02:49:37.630Z,59.23
2022-09-15T02:50:47.303Z,59.41
2022-09-15T02:52:03.061Z,59.14
2022-09-15T02:53:13.860Z,59.09
2022-09-15T02:54:19.825Z,59.42
2022-09-15T02:55:29.793Z,59.78
2022-09-15T02:56:39.891Z,59.74
2022-09-15T02:57:47.376Z,59.81
2022-09-15T02:59:00.097Z,60.04
2022-09-15T03:00:18.352Z,60.15
2022-09-15T03:01:33.322Z,60.21
2022-09-15T03:02:39.956Z,60.21
2022-09-15T03:03:46.052Z,60.43
2022-09-15T03:04:53.144Z,60.71
2022-09-15T03:08:16.035Z,61.01
2022-09-15T03:09:30.082Z,61.16
2022-09-15T03:10:36.021Z,61.40
2022-09-15T03:11:43.426Z,61.69
2022-09-15T03:12:53.884Z,62.21
2022-09-15T03:14:04.648Z,62.57
2022-09-15T03:15:11.059Z,62.63
2022-09-15T03:16:17.540Z,63.03
2022-09-15T03:17:23.690Z,62.84
2022-09-15T03:18:30.122Z,62.44
2022-09-15T03:19:36.435Z,62.87
2022-09-15T03:20:42.716Z,62.71
2022-09-15T03:21:51.623Z,62.68
2022-09-15T03:22:57.465Z,62.78
2022-09-15T03:24:06.058Z,62.84
2022-09-15T03:25:12.218Z,62.97
2022-09-15T03:26:20.747Z,63.13
2022-09-15T03:27:26.714Z,63.66
2022-09-15T03:28:35.749Z,63.82
2022-09-15T03:29:42.067Z,64.09
2022-09-15T03:30:49.703Z,64.66
2022-09-15T03:31:57.268Z,64.84
2022-09-15T03:33:03.282Z,65.49
2022-09-15T03:34:09.536Z,65.74
2022-09-15T03:35:15.120Z,65.60
2022-09-15T03:36:23.968Z,65.53
2022-09-15T03:37:30.028Z,65.23
2022-09-15T03:38:36.346Z,65.38
2022-09-15T03:39:42.565Z,66.25
2022-09-15T03:41:05.079Z,66.45
2022-09-15T03:42:11.584Z,66.12
2022-09-15T03:43:18.796Z,66.05
2022-09-15T03:44:25.175Z,66.45
2022-09-15T03:45:31.506Z,66.99
2022-09-15T03:46:40.520Z,66.99
2022-09-15T03:47:47.273Z,67.16
2022-09-15T03:48:54.388Z,67.28
2022-09-15T03:50:00.870Z,67.73
2022-09-15T03:51:07.315Z,67.41
2022-09-15T03:52:14.091Z,67.59
2022-09-15T03:53:21.129Z,67.91
2022-09-15T03:54:28.764Z,68.31
2022-09-15T03:55:35.443Z,68.14
2022-09-15T03:56:42.465Z,68.56
2022-09-15T03:57:48.844Z,68.37
2022-09-15T03:58:54.983Z,68.32
2022-09-15T04:00:01.906Z,68.46
2022-09-15T04:01:10.636Z,68.17
2022-09-15T04:02:18.742Z,68.33
2022-09-15T04:03:29.684Z,68.36
2022-09-15T04:04:37.528Z,68.43
2022-09-15T04:05:43.238Z,68.43
2022-09-15T04:06:50.453Z,68.79
2022-09-15T04:07:56.723Z,68.89
2022-09-15T04:09:03.678Z,68.68
2022-09-15T04:10:11.162Z,68.79
2022-09-15T04:11:17.932Z,69.12
2022-09-15T04:12:25.312Z,69.01
2022-09-15T04:13:31.512Z,68.83
2022-09-15T04:14:37.237Z,69.22
2022-09-15T04:15:44.194Z,69.16
2022-09-15T04:16:50.708Z,69.01
2022-09-15T04:17:58.852Z,69.09
2022-09-15T04:19:06.153Z,69.37
2022-09-15T04:20:12.641Z,69.40
2022-09-15T04:21:21.537Z,69.42
2022-09-15T04:22:28.269Z,69.75
2022-09-15T04:23:35.719Z,69.26
2022-09-15T04:24:42.093Z,69.38
2022-09-15T04:26:09.462Z,69.65
2022-09-15T04:27:16.988Z,69.73
2022-09-15T04:28:26.666Z,69.89
2022-09-15T04:29:33.641Z,70.09
2022-09-15T04:30:40.085Z,70.21
2022-09-15T04:31:49.208Z,70.32
2022-09-15T04:32:55.659Z,70.25
2022-09-15T04:34:01.816Z,70.64
2022-09-15T04:35:08.807Z,70.34
2022-09-15T04:36:21.110Z,70.24
2022-09-15T04:37:28.892Z,70.29
2022-09-15T04:38:36.690Z,70.34
2022-09-15T04:39:43.244Z,70.41
2022-09-15T04:40:52.225Z,70.54
2022-09-15T04:42:00.876Z,70.67
2022-09-15T04:43:07.074Z,70.66
2022-09-15T04:44:14.360Z,70.53
2022-09-15T04:45:20.749Z,70.39
2022-09-15T04:46:26.854Z,70.45
2022-09-15T04:47:34.318Z,70.49
2022-09-15T04:48:40.870Z,70.67
2022-09-15T04:49:47.634Z,70.95
2022-09-15T04:50:53.832Z,71.02
2022-09-15T04:51:59.850Z,71.06
2022-09-15T04:53:05.874Z,71.04
2022-09-15T04:54:13.285Z,71.14
2022-09-15T04:55:19.411Z,71.08
2022-09-15T04:56:26.402Z,71.09
2022-09-15T04:57:32.434Z,71.02
2022-09-15T04:58:40.692Z,70.99
2022-09-15T04:59:48.250Z,71.32
2022-09-15T05:00:54.402Z,71.47
2022-09-15T05:02:00.462Z,71.34
2022-09-15T05:03:07.367Z,71.22
2022-09-15T05:04:15.244Z,71.43
2022-09-15T05:05:22.440Z,71.68
2022-09-15T05:06:29.839Z,71.68
2022-09-15T05:07:38.687Z,71.84
2022-09-15T05:08:49.864Z,71.81
2022-09-15T05:09:56.679Z,71.80
2022-09-15T05:11:04.566Z,71.73
2022-09-15T05:12:11.666Z,71.87
2022-09-15T05:13:18.884Z,71.79
2022-09-15T05:14:25.195Z,71.64
2022-09-15T05:15:31.236Z,71.86
2022-09-15T05:16:37.814Z,72.02
2022-09-15T05:17:43.851Z,72.20
2022-09-15T05:18:50.831Z,72.30
2022-09-15T05:19:57.064Z,72.45
2022-09-15T05:21:03.507Z,72.22
2022-09-15T05:22:12.469Z,72.25
2022-09-15T05:23:19.425Z,72.40
2022-09-15T05:24:26.865Z,72.62
2022-09-15T05:25:34.193Z,72.40
2022-09-15T05:26:40.307Z,72.74
2022-09-15T05:27:47.654Z,73.18
2022-09-15T05:28:54.390Z,73.31
2022-09-15T05:30:23.888Z,73.62
2022-09-15T05:31:35.221Z,73.72
2022-09-15T05:32:43.765Z,73.72
2022-09-15T05:33:50.414Z,73.58
2022-09-15T05:34:57.454Z,73.68
2022-09-15T05:36:04.761Z,73.94
2022-09-15T05:37:11.699Z,73.77
2022-09-15T05:38:18.694Z,73.94
2022-09-15T05:39:25.712Z,73.69
2022-09-15T05:40:31.917Z,73.74
2022-09-15T05:41:38.011Z,74.22
2022-09-15T05:42:43.915Z,74.48
2022-09-15T05:43:50.602Z,74.81
2022-09-15T05:44:58.269Z,74.82
2022-09-15T05:46:04.432Z,74.74
2022-09-15T05:47:11.066Z,74.61
2022-09-15T05:48:18.457Z,74.44
2022-09-15T05:49:25.414Z,74.56
2022-09-15T05:50:33.998Z,74.73
2022-09-15T05:51:40.284Z,74.77
2022-09-15T05:52:53.072Z,74.85
2022-09-15T05:53:59.753Z,74.93
2022-09-15T05:55:06.036Z,75.21
2022-09-15T05:56:15.787Z,75.23
2022-09-15T05:57:22.725Z,75.30
2022-09-15T05:58:31.639Z,75.30
2022-09-15T05:59:39.869Z,75.26
2022-09-15T06:00:48.461Z,75.18
2022-09-15T06:01:54.903Z,75.34
2022-09-15T06:03:01.948Z,75.29
2022-09-15T06:04:09.216Z,75.53
2022-09-15T06:05:15.426Z,75.66
2022-09-15T06:06:22.970Z,75.92
2022-09-15T06:07:29.020Z,76.03
2022-09-15T06:08:47.996Z,76.15
2022-09-15T06:09:56.494Z,76.32
2022-09-15T06:11:13.142Z,76.24
2022-09-15T06:12:24.849Z,76.22
2022-09-15T06:13:31.030Z,76.07
2022-09-15T06:14:37.855Z,76.03
2022-09-15T06:15:44.705Z,76.19
2022-09-15T06:16:53.785Z,76.24
2022-09-15T06:18:00.777Z,76.27
2022-09-15T06:19:10.110Z,76.35
2022-09-15T06:20:17.519Z,76.47
2022-09-15T06:21:27.446Z,76.43
2022-09-15T06:22:34.193Z,76.68
2022-09-15T06:23:40.925Z,76.65
2022-09-15T06:24:47.548Z,76.49
2022-09-15T06:25:54.178Z,76.77
2022-09-15T06:27:01.258Z,76.78
2022-09-15T06:28:07.130Z,76.65
2022-09-15T06:29:16.272Z,76.70
2022-09-15T06:30:22.318Z,76.80
2022-09-15T06:31:29.216Z,76.68
2022-09-15T06:32:36.983Z,76.86
2022-09-15T06:33:45.613Z,76.87
2022-09-15T06:34:52.184Z,77.13
2022-09-15T06:35:58.245Z,77.31
2022-09-15T06:37:04.427Z,77.18
2022-09-15T06:38:11.597Z,77.00
2022-09-15T06:39:19.407Z,77.36
2022-09-15T06:40:29.310Z,77.36
2022-09-15T06:42:00.698Z,77.63
2022-09-15T06:43:10.829Z,77.52
2022-09-15T06:44:18.205Z,77.36
2022-09-15T06:45:26.360Z,77.41
2022-09-15T06:46:33.857Z,77.52
2022-09-15T06:47:41.899Z,77.54
2022-09-15T06:48:52.164Z,77.56
2022-09-15T06:50:00.254Z,77.55
2022-09-15T06:51:09.481Z,77.38
2022-09-15T06:52:15.590Z,77.48
2022-09-15T06:53:22.605Z,77.77
2022-09-15T06:54:30.772Z,77.87
2022-09-15T06:55:36.913Z,77.55
2022-09-15T06:56:44.723Z,77.70
2022-09-15T06:57:51.691Z,77.84
2022-09-15T06:59:00.644Z,77.61
2022-09-15T07:00:15.051Z,77.61
2022-09-15T07:01:28.718Z,77.94
2022-09-15T07:02:34.713Z,77.62
2022-09-15T07:03:43.764Z,77.83
2022-09-15T07:04:52.484Z,78.16
2022-09-15T07:05:58.266Z,78.42
2022-09-15T07:07:07.158Z,78.29
2022-09-15T07:08:13.695Z,78.03
2022-09-15T07:09:20.793Z,78.14
2022-09-15T07:10:28.367Z,78.07
2022-09-15T07:11:34.080Z,78.35
2022-09-15T07:12:43.128Z,78.59
2022-09-15T07:13:51.971Z,79.08
2022-09-15T07:14:58.592Z,78.86
2022-09-15T07:16:04.670Z,79.01
2022-09-15T07:17:11.367Z,78.75
2022-09-15T07:18:18.624Z,78.79
2022-09-15T07:19:26.122Z,79.12
2022-09-15T07:20:32.528Z,79.04
2022-09-15T07:21:38.579Z,79.10
2022-09-15T07:22:45.038Z,79.27
2022-09-15T07:23:51.009Z,79.39
2022-09-15T07:24:57.143Z,79.17
2022-09-15T07:26:22.661Z,79.09
2022-09-15T07:27:32.631Z,79.40
2022-09-15T07:28:42.921Z,79.55
2022-09-15T07:29:49.358Z,79.64
2022-09-15T07:30:55.924Z,79.27
2022-09-15T07:32:01.725Z,79.17
2022-09-15T07:33:08.871Z,79.05
2022-09-15T07:34:15.953Z,79.17
2022-09-15T07:35:22.549Z,78.97
2022-09-15T07:36:28.486Z,78.93
2022-09-15T07:37:34.254Z,78.78
2022-09-15T07:38:48.569Z,78.79
2022-09-15T07:39:54.872Z,78.76
2022-09-15T07:41:10.698Z,79.22
2022-09-15T07:42:16.809Z,79.15
2022-09-15T07:43:23.083Z,79.27
2022-09-15T07:44:29.426Z,79.16
2022-09-15T07:45:37.414Z,79.65
2022-09-15T07:46:45.290Z,79.42
2022-09-15T07:47:54.600Z,79.55
2022-09-15T07:49:01.494Z,79.62
2022-09-15T07:50:07.969Z,79.69
2022-09-15T07:51:15.834Z,79.66
2022-09-15T07:52:21.930Z,79.74
2022-09-15T07:53:31.321Z,79.82
2022-09-15T07:54:38.863Z,79.92
2022-09-15T07:55:44.630Z,79.75
2022-09-15T07:56:52.102Z,79.72
2022-09-15T07:58:05.126Z,79.81
2022-09-15T07:59:11.425Z,79.77
2022-09-15T08:00:18.728Z,79.73
2022-09-15T08:01:24.968Z,79.81
2022-09-15T08:02:30.946Z,79.93
2022-09-15T08:03:42.052Z,79.80
2022-09-15T08:04:49.345Z,80.21
2022-09-15T08:06:02.229Z,80.37
2022-09-15T08:07:08.158Z,80.73
2022-09-15T08:08:14.095Z,80.47
2022-09-15T08:09:22.005Z,80.30
2022-09-15T08:10:27.733Z,80.27
2022-09-15T08:11:35.357Z,80.06
2022-09-15T08:12:41.633Z,80.24
2022-09-15T08:13:49.985Z,80.60
2022-09-15T08:14:57.946Z,80.57
2022-09-15T08:16:10.454Z,80.46
2022-09-15T08:17:16.523Z,81.07
2022-09-15T08:18:23.569Z,81.53
2022-09-15T08:19:33.102Z,81.48
2022-09-15T08:20:42.756Z,81.16
2022-09-15T08:21:48.787Z,80.98
2022-09-15T08:22:54.873Z,80.64
2022-09-15T08:24:01.715Z,80.71
2022-09-15T08:25:08.204Z,80.98
2022-09-15T08:26:14.740Z,81.14
2022-09-15T08:27:21.361Z,81.15
2022-09-15T08:28:27.255Z,81.19
2022-09-15T08:29:33.382Z,81.30
2022-09-15T08:30:40.544Z,81.44
2022-09-15T08:31:47.041Z,81.64
2022-09-15T08:32:53.170Z,81.84
2022-09-15T08:34:04.466Z,81.83
2022-09-15T08:35:13.347Z,81.90
2022-09-15T08:36:19.220Z,81.95
2022-09-15T08:37:25.423Z,82.10
2022-09-15T08:38:31.057Z,81.83
2022-09-15T08:39:37.204Z,81.69
2022-09-15T08:40:44.957Z,81.68
2022-09-15T08:41:54.159Z,81.65
2022-09-15T08:43:00.859Z,81.92
2022-09-15T08:44:24.897Z,82.28
2022-09-15T08:45:32.323Z,82.29
2022-09-15T08:46:51.058Z,82.41
2022-09-15T08:48:00.438Z,82.55
2022-09-15T08:49:50.910Z,82.62
2022-09-15T08:51:01.313Z,83.13
2022-09-15T08:52:08.923Z,83.04
2022-09-15T08:53:19.247Z,83.10
2022-09-15T08:54:27.487Z,83.21
2022-09-15T08:55:55.686Z,83.31
2022-09-15T08:57:03.350Z,83.44
2022-09-15T08:58:33.395Z,83.85
2022-09-15T08:59:41.568Z,84.32
2022-09-15T09:00:54.410Z,84.57
2022-09-15T09:02:32.018Z,84.43
2022-09-15T09:03:44.695Z,84.21
2022-09-15T09:05:11.637Z,84.42
2022-09-15T09:06:49.449Z,84.69
2022-09-15T09:08:13.607Z,84.78
2022-09-15T09:09:55.922Z,84.87
2022-09-15T09:11:06.577Z,84.69
2022-09-15T09:12:33.553Z,84.75
2022-09-15T09:14:06.880Z,85.33
2022-09-15T09:15:37.010Z,85.27
2022-09-15T09:16:52.418Z,85.51
2022-09-15T09:18:36.269Z,85.68
2022-09-15T09:20:07.225Z,85.81
2022-09-15T09:21:34.838Z,85.48
2022-09-15T09:22:41.737Z,85.76
2022-09-15T09:24:07.006Z,85.72
2022-09-15T09:25:26.629Z,85.58
2022-09-15T09:26:36.613Z,85.69
2022-09-15T09:27:44.167Z,85.81
2022-09-15T09:29:02.565Z,85.44
2022-09-15T09:30:20.519Z,85.39
2022-09-15T09:31:29.393Z,85.12
2022-09-15T09:33:08.633Z,85.03
2022-09-15T09:34:14.233Z,85.25
2022-09-15T09:35:45.847Z,85.68
2022-09-15T09:37:15.087Z,86.10
2022-09-15T09:38:40.204Z,86.18
2022-09-15T09:39:49.606Z,86.20
2022-09-15T09:40:58.669Z,86.30
2022-09-15T09:42:15.204Z,86.60
2022-09-15T09:43:21.795Z,86.78
2022-09-15T09:44:32.251Z,86.59
2022-09-15T09:45:39.747Z,86.36
2022-09-15T09:46:47.175Z,86.21
2022-09-15T09:47:58.327Z,86.46
2022-09-15T09:49:24.194Z,86.50
2022-09-15T09:50:40.305Z,86.30
2022-09-15T09:52:03.848Z,86.05
2022-09-15T09:53:34.679Z,85.87
2022-09-15T09:54:40.452Z,85.55
2022-09-15T09:55:49.348Z,85.41
2022-09-15T09:56:57.064Z,85.40
2022-09-15T09:58:32.306Z,85.27
2022-09-15T09:59:56.756Z,84.87
2022-09-15T10:01:02.919Z,84.63
2022-09-15T10:02:17.670Z,84.49
2022-09-15T10:03:29.256Z,84.28
2022-09-15T10:04:41.005Z,84.20
2022-09-15T10:06:21.794Z,84.15
2022-09-15T10:07:28.242Z,83.98
2022-09-15T10:08:34.385Z,83.85
2022-09-15T10:09:51.129Z,83.78
2022-09-15T10:11:00.961Z,83.74
2022-09-15T10:12:17.583Z,83.56
2022-09-15T10:13:25.783Z,83.31
2022-09-15T10:14:42.128Z,83.16
2022-09-15T10:15:54.767Z,82.92
2022-09-15T10:17:38.338Z,82.88
2022-09-15T10:18:44.767Z,82.67
2022-09-15T10:19:57.625Z,82.75
2022-09-15T10:21:04.437Z,82.63
2022-09-15T10:22:11.506Z,82.65
2022-09-15T10:23:29.433Z,82.53
2022-09-15T10:24:40.582Z,82.40
2022-09-15T10:25:59.024Z,82.29
2022-09-15T10:27:20.751Z,82.18
2022-09-15T10:28:28.513Z,81.92
2022-09-15T10:29:40.362Z,81.80
2022-09-15T10:31:05.410Z,81.60
2022-09-15T10:32:29.388Z,81.63
2022-09-15T10:33:40.078Z,81.47
2022-09-15T10:34:46.164Z,81.50
2022-09-15T10:35:52.297Z,81.46
2022-09-15T10:37:15.214Z,81.46
2022-09-15T10:38:31.246Z,81.53
2022-09-15T10:39:50.758Z,81.33
2022-09-15T10:41:20.442Z,81.27
2022-09-15T10:42:51.269Z,81.22
2022-09-15T10:44:42.763Z,81.15
2022-09-15T10:45:57.026Z,81.01
2022-09-15T10:47:18.536Z,80.95
2022-09-15T10:48:45.267Z,80.86
2022-09-15T10:50:16.139Z,81.00
2022-09-15T10:51:47.330Z,81.07
2022-09-15T10:53:15.268Z,80.98
2022-09-15T10:54:53.143Z,81.18
2022-09-15T10:56:09.975Z,81.10
2022-09-15T10:57:53.018Z,81.09
2022-09-15T10:59:44.229Z,81.08
2022-09-15T11:01:27.240Z,81.10
2022-09-15T11:03:26.837Z,81.26
2022-09-15T11:05:00.396Z,81.47
2022-09-15T11:06:18.361Z,81.38
2022-09-15T11:07:47.445Z,81.39
2022-09-15T11:08:56.425Z,81.30
2022-09-15T11:10:26.882Z,81.53
2022-09-15T11:12:02.932Z,81.64
2022-09-15T11:13:53.389Z,81.75
2022-09-15T11:15:16.208Z,81.60
2022-09-15T11:16:45.550Z,81.65
2022-09-15T11:17:57.689Z,81.97
2022-09-15T11:19:46.301Z,81.93
2022-09-15T11:21:10.364Z,82.08
2022-09-15T11:22:20.060Z,82.31
2022-09-15T11:23:43.874Z,82.49
2022-09-15T11:24:57.804Z,82.61
2022-09-15T11:26:09.100Z,82.64
2022-09-15T11:27:21.167Z,82.75
2022-09-15T11:28:42.981Z,82.90
2022-09-15T11:30:26.842Z,82.88
2022-09-15T11:31:40.578Z,82.88
2022-09-15T11:33:05.061Z,83.07
2022-09-15T11:34:50.095Z,83.00
2022-09-15T11:36:29.867Z,82.93
2022-09-15T11:37:44.929Z,82.89
2022-09-15T11:39:05.531Z,82.97
2022-09-15T11:40:46.037Z,83.00
2022-09-15T11:42:17.789Z,83.04
2022-09-15T11:43:28.329Z,83.25
2022-09-15T11:44:34.665Z,83.62
2022-09-15T11:45:45.349Z,83.66
2022-09-15T11:47:36.863Z,83.51
2022-09-15T11:49:08.826Z,83.32
2022-09-15T11:50:18.698Z,83.42
2022-09-15T11:51:25.578Z,83.42
2022-09-15T11:52:55.261Z,83.28
2022-09-15T11:54:12.062Z,83.05
2022-09-15T11:55:44.063Z,82.90
2022-09-15T11:56:51.354Z,83.23
2022-09-15T11:58:22.380Z,83.10
2022-09-15T11:59:51.041Z,82.87
2022-09-15T12:01:55.567Z,82.61
2022-09-15T12:03:18.543Z,82.40
2022-09-15T12:04:30.489Z,82.11
2022-09-15T12:05:42.795Z,81.97
2022-09-15T12:06:53.262Z,81.97
2022-09-15T12:08:05.581Z,82.01
2022-09-15T12:09:15.479Z,81.91
2022-09-15T12:10:27.114Z,81.73
2022-09-15T12:11:37.424Z,81.48
2022-09-15T12:12:44.075Z,81.20
2022-09-15T12:13:50.188Z,81.06
2022-09-15T12:14:56.435Z,81.05
2022-09-15T12:16:03.026Z,80.98
2022-09-15T12:17:11.797Z,80.79
2022-09-15T12:18:46.991Z,80.74
2022-09-15T12:20:12.315Z,80.66
2022-09-15T12:21:29.057Z,80.67
2022-09-15T12:22:47.704Z,80.69
2022-09-15T12:23:57.635Z,80.57
2022-09-15T12:25:24.157Z,80.39
2022-09-15T12:26:30.506Z,80.33
2022-09-15T12:27:36.378Z,80.23
2022-09-15T12:28:43.897Z,80.26
2022-09-15T12:29:57.195Z,80.35
2022-09-15T12:31:31.841Z,80.26
2022-09-15T12:32:38.806Z,80.25
2022-09-15T12:33:44.821Z,80.36
2022-09-15T12:35:18.505Z,80.38
2022-09-15T12:36:43.192Z,80.34
2022-09-15T12:37:59.263Z,80.18
2022-09-15T12:39:26.682Z,80.12
2022-09-15T12:40:36.473Z,80.01
2022-09-15T12:41:48.600Z,80.01
2022-09-15T12:42:56.474Z,80.16
2022-09-15T12:44:21.999Z,80.31
2022-09-15T12:45:32.350Z,80.33
2022-09-15T12:46:38.278Z,80.37
2022-09-15T12:47:55.206Z,80.39
2022-09-15T12:49:03.661Z,80.28
2022-09-15T12:50:17.402Z,80.18
2022-09-15T12:51:26.480Z,80.15
2022-09-15T12:52:34.473Z,79.96
2022-09-15T12:53:47.719Z,79.85
2022-09-15T12:54:59.612Z,79.64
2022-09-15T12:56:10.927Z,79.78
2022-09-15T12:57:25.479Z,79.70
2022-09-15T12:58:48.670Z,79.74
2022-09-15T13:00:24.219Z,79.88
2022-09-15T13:01:34.087Z,79.90
2022-09-15T13:02:53.542Z,79.73
2022-09-15T13:03:59.924Z,79.65
2022-09-15T13:05:08.949Z,79.50
2022-09-15T13:06:38.430Z,79.46
2022-09-15T13:08:08.869Z,79.44
2022-09-15T13:09:56.818Z,79.40
2022-09-15T13:11:07.269Z,79.59
2022-09-15T13:12:16.967Z,79.69
2022-09-15T13:13:31.232Z,79.65
2022-09-15T13:14:47.089Z,79.58
2022-09-15T13:15:55.960Z,79.45
2022-09-15T13:17:20.346Z,79.41
2022-09-15T13:18:27.672Z,79.28
2022-09-15T13:19:37.068Z,79.25
2022-09-15T13:20:50.629Z,79.23
2022-09-15T13:22:20.168Z,79.20
2022-09-15T13:23:29.581Z,79.31
2022-09-15T13:25:26.840Z,79.34
2022-09-15T13:26:33.894Z,79.41
2022-09-15T13:27:55.278Z,79.38
2022-09-15T13:29:02.786Z,79.28
2022-09-15T13:30:38.765Z,79.14
2022-09-15T13:31:58.648Z,78.96
2022-09-15T13:35:03.082Z,79.06
2022-09-15T13:35:26.648Z,79.44
2022-09-15T13:38:44.032Z,79.43
2022-09-15T13:40:23.363Z,79.36
2022-09-15T13:42:26.610Z,79.33
2022-09-15T13:44:08.903Z,79.13
2022-09-15T13:45:34.103Z,78.80
2022-09-15T13:47:26.946Z,78.95
2022-09-15T13:48:41.233Z,78.87
2022-09-15T13:50:26.662Z,78.89
2022-09-15T13:51:32.950Z,78.91
2022-09-15T13:53:15.363Z,78.99
2022-09-15T13:54:21.457Z,79.00
2022-09-15T13:55:28.583Z,78.79
2022-09-15T13:56:39.828Z,78.59
2022-09-15T13:59:28.234Z,78.33
2022-09-15T14:00:59.858Z,78.50
2022-09-15T14:02:09.631Z,78.44
2022-09-15T14:03:17.953Z,78.36
2022-09-15T14:04:30.379Z,78.39
2022-09-15T14:05:36.526Z,78.12
2022-09-15T14:06:46.938Z,78.00
2022-09-15T14:07:55.763Z,77.69
2022-09-15T14:09:30.739Z,77.55
2022-09-15T14:10:45.827Z,77.27
2022-09-15T14:11:56.308Z,77.17
2022-09-15T14:13:04.115Z,77.21
2022-09-15T14:14:30.632Z,77.12
2022-09-15T14:15:37.956Z,76.96
2022-09-15T14:16:51.476Z,76.91
2022-09-15T14:17:59.806Z,76.72
2022-09-15T14:19:43.293Z,76.37
2022-09-15T14:21:05.667Z,76.06
2022-09-15T14:22:26.702Z,75.66
2022-09-15T14:23:33.306Z,75.45
2022-09-15T14:24:45.046Z,75.19
2022-09-15T14:25:51.738Z,75.33
2022-09-15T14:27:01.257Z,75.12
2022-09-15T14:28:19.437Z,75.13
2022-09-15T14:29:26.579Z,74.91
2022-09-15T14:30:36.802Z,74.72
2022-09-15T14:31:43.748Z,74.53
2022-09-15T14:32:52.837Z,74.22
2022-09-15T14:34:00.114Z,73.99
2022-09-15T14:35:08.774Z,73.78
2022-09-15T14:36:16.249Z,73.62
2022-09-15T14:37:24.469Z,73.60
2022-09-15T14:38:30.777Z,73.14
2022-09-15T14:39:38.514Z,72.92
2022-09-15T14:40:44.777Z,72.79
2022-09-15T14:41:51.216Z,72.65
2022-09-15T14:42:57.741Z,72.34
2022-09-15T14:45:52.921Z,71.81
2022-09-15T14:45:57.546Z,71.39
2022-09-15T14:47:40.917Z,71.04
2022-09-15T14:48:47.063Z,70.62
2022-09-15T14:50:10.574Z,70.51
2022-09-15T14:51:26.448Z,70.09
2022-09-15T14:52:37.434Z,69.86
2022-09-15T14:53:44.638Z,70.11
2022-09-15T14:54:51.028Z,69.93
2022-09-15T14:56:08.170Z,69.75
2022-09-15T14:57:16.047Z,69.62
2022-09-15T14:58:36.869Z,69.41
2022-09-15T14:59:54.167Z,69.14
2022-09-15T15:01:08.481Z,69.05
2022-09-15T15:02:36.968Z,68.59
2022-09-15T15:03:50.847Z,68.46
2022-09-15T15:05:34.146Z,68.27
2022-09-15T15:07:08.789Z,67.73
2022-09-15T15:08:24.656Z,67.61
2022-09-15T15:09:47.772Z,67.51
2022-09-15T15:10:55.239Z,67.35
2022-09-15T15:12:06.760Z,67.18
2022-09-15T15:13:17.449Z,66.89
2022-09-15T15:14:24.236Z,65.76
2022-09-15T15:15:30.477Z,64.10
2022-09-15T15:16:39.708Z,63.02
2022-09-15T15:17:56.455Z,62.08
2022-09-15T15:19:02.569Z,61.58
2022-09-15T15:20:11.398Z,61.27
2022-09-15T15:21:40.514Z,61.47
2022-09-15T15:22:47.062Z,62.07
2022-09-15T15:23:53.585Z,61.58
2022-09-15T15:24:59.722Z,61.69
2022-09-15T15:26:36.979Z,61.98
2022-09-15T15:27:43.291Z,62.34
2022-09-15T15:28:49.511Z,62.52
2022-09-15T15:29:55.805Z,62.57
2022-09-15T15:31:21.564Z,62.69
2022-09-15T15:32:27.466Z,62.89
2022-09-15T15:33:33.764Z,63.22
2022-09-15T15:34:40.453Z,63.17
2022-09-15T15:35:46.164Z,62.82
2022-09-15T15:36:53.429Z,61.82
2022-09-15T15:38:17.346Z,60.99
2022-09-15T15:39:28.335Z,61.48
2022-09-15T15:40:34.817Z,61.94
2022-09-15T15:43:03.838Z,61.30
2022-09-15T15:44:30.261Z,61.21
2022-09-15T15:45:37.394Z,60.93
2022-09-15T15:47:05.034Z,59.67
2022-09-15T15:48:10.776Z,56.98
2022-09-15T15:49:16.980Z,56.51
2022-09-15T15:50:25.874Z,56.37
2022-09-15T15:51:33.270Z,55.71
2022-09-15T15:52:42.118Z,55.47
2022-09-15T15:53:49.269Z,55.57
2022-09-15T15:54:55.317Z,54.76
2022-09-15T15:56:01.934Z,54.89
2022-09-15T15:57:40.440Z,55.42
2022-09-15T15:58:46.756Z,54.01
2022-09-15T15:59:57.560Z,53.54
2022-09-15T16:01:04.755Z,52.14
2022-09-15T16:02:11.923Z,52.20
2022-09-15T16:03:18.071Z,51.51
2022-09-15T16:04:25.678Z,50.96
2022-09-15T16:05:34.048Z,49.74
2022-09-15T16:06:42.939Z,48.32
2022-09-15T16:07:53.471Z,47.19
2022-09-15T16:09:03.984Z,47.49
2022-09-15T16:10:10.155Z,47.84
2022-09-15T16:11:16.718Z,47.79